Seneca, Michigan
Current Conditions -  °F | °C
As of 8:53 PM on Wednesday 17 Dec 2014 (Local Time) from KADG Reporting Station
Overcast Overcast  
Wind Chill: 18°   Ceiling: 2800
Heat Index: 29°   Visibility: 10mi
Dew Point: 19°   Wind: 14mph
Humidity: 67%   Direction: 320°NW
Pressure: 30.18"   Gusts: NA
Location:  41.79°N, 84.18°W
Report Text: KADG 180153Z AUTO 32012KT 10SM OVC028 M02/M07 A3018 RMK AO2 SLP230 T10171072
Loading
Personal Weather Stations






























Interactive Weather Map New forecast layout! Learn more

10-Day Weather Forecast

Advertisements
Track Severe Weather on mobile